< < Back
Terminal Aerodrome Forecast


Current Version              Previous Versions:   1  2  3  4  5  6  7  8  9  

Terminal Aerodrome Forecast

208
FTUS44 KMRX 011125
TAFCHA
TAF
KCHA 011125Z 0112/0212 00000KT 6SM BR SCT030 BKN250
     FM011300 VRB03KT P6SM SCT030 BKN250
     FM011800 04004KT P6SM VCSH SCT040 BKN120
     FM012300 04003KT P6SM SCT040 BKN250
     FM021000 00000KT 4SM BR SCT030 BKN250=

Latest METAR

756
SAUS80 KWBC 011400 RRD
MTRCHA
METAR KCHA 011353Z 00000KT 10SM BKN038 BKN250 23/19 A3010 RMK AO2 SLP186
T02330189


USA.gov is the U.S. government's official web portal to all federal, state and local government web resources and services.